Time;durP1;ratioP1;P1;durP2;ratioP2;P2;SDS_P1;SDS_P2;PMS_P1;PMS_P2;Temp;Humidity;BMP_temperature;BMP_pressure;BME280_temperature;BME280_humidity;BME280_pressure;Samples;Min_cycle;Max_cycle;Signal;HPM_P1;HPM_P2
2021/12/28 00:01:16;;;;;;;3.90;2.13;;;;;;;10.05;63.82;98607.88;10339901;28;20222;-81
2021/12/28 00:06:19;;;;;;;2.53;2.10;;;;;;;10.20;63.47;98598.66;10333078;28;20202;-83
2021/12/28 00:11:22;;;;;;;4.77;2.40;;;;;;;9.85;64.43;98603.31;10331903;28;20218;-80
2021/12/28 00:16:31;;;;;;;2.60;2.23;;;;;;;9.82;65.14;98592.84;10322463;28;20303;-81
2021/12/28 00:21:33;;;;;;;5.00;2.60;;;;;;;10.16;63.31;98588.50;10285309;28;1038972;-83
2021/12/28 00:26:35;;;;;;;3.93;2.57;;;;;;;10.22;63.13;98585.09;10326671;28;20252;-81
2021/12/28 00:31:37;;;;;;;3.47;2.40;;;;;;;10.04;63.23;98589.41;10326696;28;20224;-80
2021/12/28 00:36:40;;;;;;;3.83;2.30;;;;;;;10.42;62.34;98583.16;10330547;28;20321;-81
2021/12/28 00:41:42;;;;;;;3.40;2.30;;;;;;;10.00;63.83;98582.91;10305698;28;20249;-81
2021/12/28 00:46:44;;;;;;;5.13;2.30;;;;;;;10.29;61.89;98568.41;10325091;28;20225;-81
2021/12/28 00:51:47;;;;;;;2.70;2.10;;;;;;;10.43;61.88;98571.56;10315652;28;20685;-81
2021/12/28 00:56:49;;;;;;;4.70;2.30;;;;;;;10.18;62.82;98564.53;10332307;28;20225;-82
2021/12/28 01:01:52;;;;;;;4.53;2.27;;;;;;;10.25;62.32;98555.47;10331842;28;20283;-80
2021/12/28 01:06:54;;;;;;;3.17;1.90;;;;;;;9.95;62.77;98535.50;10312236;28;20206;-81
2021/12/28 01:12:01;;;;;;;5.33;2.40;;;;;;;9.71;63.71;98534.47;10313304;28;20217;-80
2021/12/28 01:17:07;;;;;;;4.97;2.03;;;;;;;9.72;63.79;98536.09;10326956;28;20225;-80
2021/12/28 01:22:09;;;;;;;3.93;2.10;;;;;;;9.58;64.57;98530.09;10340564;28;20225;-80
2021/12/28 01:27:11;;;;;;;5.87;2.30;;;;;;;9.75;63.69;98530.94;10367020;28;20235;-82
2021/12/28 01:32:14;;;;;;;7.07;2.27;;;;;;;9.82;62.83;98531.16;10353503;28;20476;-81
2021/12/28 01:37:16;;;;;;;4.13;2.23;;;;;;;10.07;62.14;98527.78;10350515;28;20516;-81
2021/12/28 01:42:18;;;;;;;4.60;1.77;;;;;;;9.60;63.52;98524.94;10338227;28;20480;-81
2021/12/28 01:47:20;;;;;;;7.67;2.37;;;;;;;9.59;63.35;98526.13;10326049;28;20214;-84
2021/12/28 01:52:23;;;;;;;4.17;2.37;;;;;;;9.66;63.30;98529.13;10339065;28;20202;-81
2021/12/28 01:57:25;;;;;;;5.43;2.00;;;;;;;9.66;63.29;98529.13;10327605;28;20226;-82
2021/12/28 02:02:27;;;;;;;5.00;1.90;;;;;;;9.29;63.99;98536.91;10320602;28;20226;-82
2021/12/28 02:07:29;;;;;;;4.37;1.93;;;;;;;9.77;62.60;98529.41;10341161;28;20587;-82
2021/12/28 02:12:31;;;;;;;4.67;1.90;;;;;;;9.62;62.71;98522.59;10359548;28;20546;-82
2021/12/28 02:17:34;;;;;;;4.87;2.20;;;;;;;9.73;62.10;98522.88;10348034;28;20641;-81
2021/12/28 02:22:37;;;;;;;3.63;2.10;;;;;;;9.91;60.96;98512.13;10314757;28;20275;-84
2021/12/28 02:27:39;;;;;;;4.20;1.70;;;;;;;9.68;61.91;98515.56;10316340;28;20685;-81
2021/12/28 02:32:43;;;;;;;7.13;2.07;;;;;;;10.18;60.01;98511.22;10331861;28;20661;-80
2021/12/28 02:37:45;;;;;;;7.20;1.70;;;;;;;9.34;63.63;98499.38;10336451;28;20300;-82
2021/12/28 02:42:48;;;;;;;4.77;2.27;;;;;;;9.23;63.80;98503.88;10338433;28;20197;-81
2021/12/28 02:47:50;;;;;;;5.20;2.27;;;;;;;9.43;63.15;98490.81;10323385;28;20194;-80
2021/12/28 02:52:53;;;;;;;5.93;1.53;;;;;;;9.44;63.05;98486.84;10305366;28;20237;-81
2021/12/28 02:57:59;;;;;;;5.67;2.23;;;;;;;9.57;62.88;98478.03;10339828;28;20253;-81
2021/12/28 03:03:07;;;;;;;9.30;2.27;;;;;;;9.89;61.34;98475.22;10329697;28;20260;-81
2021/12/28 03:08:10;;;;;;;6.53;1.70;;;;;;;10.59;58.57;98467.66;10345459;28;20198;-81
2021/12/28 03:13:15;;;;;;;6.50;2.17;;;;;;;10.27;59.87;98464.13;10314550;28;20209;-82
2021/12/28 03:18:18;;;;;;;8.40;2.40;;;;;;;9.99;60.36;98457.81;10337314;28;20251;-82
2021/12/28 03:23:22;;;;;;;9.23;2.23;;;;;;;10.64;58.22;98450.53;10330766;28;20264;-81
2021/12/28 03:28:30;;;;;;;10.63;2.10;;;;;;;9.79;60.95;98445.72;10337843;28;20202;-83
2021/12/28 03:33:39;;;;;;;9.77;2.23;;;;;;;10.16;60.15;98435.00;10337107;28;20217;-81
2021/12/28 03:38:42;;;;;;;10.27;2.40;;;;;;;10.23;59.38;98434.34;10338564;28;20298;-81
2021/12/28 03:43:47;;;;;;;11.70;2.23;;;;;;;10.73;57.61;98430.66;10337106;28;20206;-82
2021/12/28 03:48:49;;;;;;;10.20;2.07;;;;;;;10.60;57.94;98429.16;10332690;28;20264;-82
2021/12/28 03:53:52;;;;;;;15.53;2.90;;;;;;;10.34;59.20;98419.38;10337513;28;20217;-81
2021/12/28 03:58:54;;;;;;;13.77;3.00;;;;;;;10.28;59.41;98420.84;10334042;28;20276;-81
2021/12/28 04:03:56;;;;;;;13.47;2.43;;;;;;;10.62;59.07;98409.91;10335494;28;20222;-81
2021/12/28 04:09:00;;;;;;;12.00;2.33;;;;;;;9.92;61.60;98404.38;10335238;28;20257;-81
2021/12/28 04:14:05;;;;;;;12.13;2.90;;;;;;;9.97;61.37;98399.28;10319307;28;20272;-82
2021/12/28 04:19:07;;;;;;;10.03;2.03;;;;;;;10.05;62.14;98394.66;10337769;28;20318;-81
2021/12/28 04:24:09;;;;;;;7.37;1.93;;;;;;;9.92;61.94;98401.56;10335405;28;20230;-81
2021/12/28 04:29:12;;;;;;;10.70;2.10;;;;;;;10.21;60.45;98392.63;10324046;28;20256;-82
2021/12/28 04:34:14;;;;;;;9.83;2.33;;;;;;;10.35;60.38;98384.53;10329705;28;20515;-80
2021/12/28 04:39:17;;;;;;;16.00;2.77;;;;;;;10.13;61.80;98378.78;10335323;28;20202;-81
2021/12/28 04:44:24;;;;;;;12.43;2.57;;;;;;;10.30;60.19;98384.81;10318665;28;20261;-81
2021/12/28 04:49:28;;;;;;;17.27;2.80;;;;;;;10.18;61.08;98376.50;10327396;28;20290;-82
2021/12/28 04:54:30;;;;;;;13.73;2.23;;;;;;;10.29;60.54;98371.94;10312676;28;20499;-80
2021/12/28 04:59:33;;;;;;;11.43;1.97;;;;;;;10.60;59.36;98359.78;10336296;28;20206;-81
2021/12/28 05:04:35;;;;;;;9.10;1.77;;;;;;;10.86;57.86;98356.28;10312899;28;20518;-82
2021/12/28 05:09:38;;;;;;;11.27;2.17;;;;;;;10.69;60.13;98356.75;10325975;28;20551;-82
2021/12/28 05:14:42;;;;;;;12.50;2.47;;;;;;;10.57;59.42;98349.28;10329691;28;20225;-81
2021/12/28 05:19:44;;;;;;;9.47;2.20;;;;;;;10.09;62.16;98353.47;10327963;28;20607;-81
2021/12/28 05:24:46;;;;;;;9.27;2.00;;;;;;;10.25;61.46;98348.59;10305531;28;20233;-83
2021/12/28 05:29:49;;;;;;;5.20;1.37;;;;;;;10.39;60.94;98350.88;10327455;28;20260;-79
2021/12/28 05:34:51;;;;;;;14.03;2.57;;;;;;;10.29;61.50;98355.09;10325810;28;20241;-80
2021/12/28 05:39:53;;;;;;;10.73;2.13;;;;;;;9.93;62.70;98347.09;10324828;28;20222;-80
2021/12/28 05:44:56;;;;;;;7.00;1.73;;;;;;;10.27;61.62;98342.63;10310150;28;20206;-80
2021/12/28 05:56:27;;;;;;;11.07;2.50;;;;;;;9.67;64.09;98322.47;10315503;28;20257;-81
2021/12/28 06:01:30;;;;;;;10.33;2.80;;;;;;;10.58;60.97;98322.00;10337375;28;20253;-79
2021/12/28 06:06:33;;;;;;;7.50;2.30;;;;;;;10.24;61.58;98324.50;10331244;28;20229;-81
2021/12/28 06:11:35;;;;;;;8.63;2.30;;;;;;;9.99;63.32;98323.97;10333049;28;20256;-81
2021/12/28 06:16:38;;;;;;;8.40;2.60;;;;;;;10.62;60.08;98300.41;10329550;28;20261;-79
2021/12/28 06:21:41;;;;;;;7.83;2.53;;;;;;;10.23;61.84;98303.25;10312700;28;20288;-81
2021/12/28 06:26:43;;;;;;;7.10;2.13;;;;;;;9.96;61.87;98307.09;10331623;28;20206;-82
2021/12/28 06:31:45;;;;;;;6.90;2.23;;;;;;;9.94;62.95;98309.44;10309701;28;20680;-80
2021/12/28 06:36:47;;;;;;;7.20;1.67;;;;;;;10.21;61.41;98302.81;10300602;28;20324;-82
2021/12/28 06:41:50;;;;;;;3.37;1.50;;;;;;;10.67;60.53;98302.94;10323185;28;20210;-80
2021/12/28 06:46:52;;;;;;;5.47;1.33;;;;;;;10.37;61.31;98317.56;10325247;28;20280;-80
2021/12/28 06:51:54;;;;;;;3.60;1.30;;;;;;;10.40;61.65;98311.22;10309250;28;20272;-80
2021/12/28 06:56:57;;;;;;;2.93;1.30;;;;;;;10.39;61.25;98305.97;10313168;28;20638;-81
2021/12/28 07:02:00;;;;;;;5.13;1.67;;;;;;;9.86;62.67;98293.63;10324683;28;20221;-81
2021/12/28 07:07:03;;;;;;;3.77;1.47;;;;;;;10.37;61.83;98289.50;10316259;28;20237;-81
2021/12/28 07:12:05;;;;;;;6.27;1.43;;;;;;;10.43;61.36;98285.22;10338733;28;20234;-81
2021/12/28 07:17:08;;;;;;;7.70;1.27;;;;;;;10.35;61.66;98286.28;10311518;28;20261;-83
2021/12/28 07:22:10;;;;;;;3.50;1.10;;;;;;;10.17;61.76;98278.66;10327299;28;20284;-81
2021/12/28 07:27:14;;;;;;;5.20;1.20;;;;;;;10.71;60.06;98282.19;10285160;28;20303;-82
2021/12/28 07:32:16;;;;;;;2.53;0.97;;;;;;;10.42;60.82;98286.41;10300154;28;20253;-81
2021/12/28 07:37:18;;;;;;;3.17;0.93;;;;;;;10.28;61.42;98280.50;10328273;28;20261;-82
2021/12/28 07:42:21;;;;;;;4.70;1.10;;;;;;;10.34;61.39;98289.44;10327497;28;20233;-82
2021/12/28 07:47:23;;;;;;;3.10;0.90;;;;;;;10.43;60.85;98288.03;10293477;28;20225;-81
2021/12/28 07:52:25;;;;;;;5.27;1.40;;;;;;;10.19;61.90;98276.31;10328609;28;20384;-81
2021/12/28 07:57:27;;;;;;;2.27;0.80;;;;;;;10.51;60.67;98276.94;10312407;28;20569;-81
2021/12/28 08:08:08;;;;;;;2.33;0.60;;;;;;;10.13;61.86;98283.38;10627271;23;20269;-82
2021/12/28 08:13:10;;;;;;;3.30;0.90;;;;;;;10.58;60.40;98277.88;10063515;29;20250;-81
2021/12/28 08:18:13;;;;;;;1.80;0.40;;;;;;;10.55;60.57;98266.59;10056137;29;20503;-80
2021/12/28 08:23:15;;;;;;;4.27;0.70;;;;;;;10.46;61.23;98263.22;10075056;29;20350;-79
2021/12/28 08:28:17;;;;;;;2.27;0.60;;;;;;;10.28;61.62;98274.06;10092317;29;20555;-79
2021/12/28 08:33:19;;;;;;;1.60;0.70;;;;;;;10.62;59.78;98261.94;10092000;29;20210;-80
2021/12/28 08:38:22;;;;;;;2.20;0.40;;;;;;;10.92;59.35;98264.88;10062281;29;20818;-79
2021/12/28 08:43:24;;;;;;;0.97;0.40;;;;;;;10.69;60.29;98280.94;10057245;29;20258;-81
2021/12/28 08:48:27;;;;;;;1.83;0.40;;;;;;;10.82;59.96;98293.59;10062149;29;20226;-83
2021/12/28 08:53:29;;;;;;;1.33;0.43;;;;;;;10.64;60.86;98298.06;10054760;29;20490;-80
2021/12/28 08:58:32;;;;;;;0.70;0.40;;;;;;;10.65;61.03;98299.69;10063310;29;20319;-81
2021/12/28 09:03:34;;;;;;;1.80;0.77;;;;;;;10.91;59.86;98296.16;10091263;29;20563;-82
2021/12/28 09:08:36;;;;;;;1.40;0.40;;;;;;;10.71;61.53;98281.38;10089688;29;20265;-80
2021/12/28 09:13:38;;;;;;;0.70;0.30;;;;;;;10.75;61.21;98271.00;10070841;29;20627;-79
2021/12/28 09:18:41;;;;;;;0.87;0.30;;;;;;;11.14;59.63;98280.09;10048201;29;20250;-80
2021/12/28 09:23:44;;;;;;;0.63;0.23;;;;;;;10.65;61.05;98257.56;10045549;29;20241;-82
2021/12/28 09:29:06;;;;;;;1.17;0.40;;;;;;;10.96;60.54;98262.97;10043720;29;20483;-81
2021/12/28 09:34:08;;;;;;;1.60;0.20;;;;;;;10.85;61.45;98244.28;10048492;29;20627;-80
2021/12/28 09:39:30;;;;;;;1.80;0.30;;;;;;;11.27;59.82;98264.66;10081837;29;20957;-82
2021/12/28 09:44:34;;;;;;;1.43;0.40;;;;;;;11.40;59.03;98268.88;10058885;29;20619;-81
2021/12/28 09:49:37;;;;;;;1.47;0.30;;;;;;;11.06;59.83;98261.50;10078792;29;20261;-81
2021/12/28 09:54:40;;;;;;;1.60;0.30;;;;;;;11.48;59.73;98259.38;10069161;29;20294;-80
2021/12/28 09:59:43;;;;;;;0.40;0.20;;;;;;;10.78;60.83;98251.41;10078496;29;20277;-80
2021/12/28 10:04:56;;;;;;;0.47;0.30;;;;;;;11.31;60.36;98245.03;10064368;29;20301;-80
2021/12/28 10:10:06;;;;;;;1.23;0.30;;;;;;;11.26;59.62;98245.38;10063516;29;20209;-81
2021/12/28 10:15:15;;;;;;;0.47;0.20;;;;;;;11.43;59.26;98233.56;10073082;29;20225;-81
2021/12/28 10:20:29;;;;;;;0.67;0.20;;;;;;;10.89;60.64;98236.72;10056475;29;20255;-82
2021/12/28 10:25:33;;;;;;;0.63;0.20;;;;;;;11.57;59.57;98228.16;10072195;29;20238;-82
2021/12/28 10:30:49;;;;;;;0.97;0.10;;;;;;;11.14;60.30;98216.28;10061189;29;20302;-82
2021/12/28 10:35:57;;;;;;;0.53;0.40;;;;;;;11.27;60.16;98214.06;10067487;29;20253;-81
2021/12/28 10:41:07;;;;;;;0.20;0.20;;;;;;;11.27;59.82;98200.00;10073120;29;20289;-81
2021/12/28 10:46:12;;;;;;;0.20;0.20;;;;;;;11.03;61.66;98192.00;10052177;29;20222;-80
2021/12/28 10:51:22;;;;;;;0.20;0.10;;;;;;;11.35;60.11;98189.69;10052512;29;20238;-80
2021/12/28 10:56:26;;;;;;;1.33;0.20;;;;;;;11.08;61.75;98186.06;10069921;29;20259;-82
2021/12/28 11:01:33;;;;;;;0.27;0.10;;;;;;;11.17;62.05;98168.94;10043568;29;20302;-81
2021/12/28 11:06:40;;;;;;;0.30;0.10;;;;;;;10.93;62.70;98156.94;10080828;29;20281;-81
2021/12/28 11:11:42;;;;;;;1.33;0.10;;;;;;;11.08;62.84;98155.97;10083725;29;20263;-80
2021/12/28 11:16:50;;;;;;;0.10;0.10;;;;;;;11.19;62.55;98144.06;10062075;29;20265;-80
2021/12/28 11:21:54;;;;;;;2.10;0.20;;;;;;;11.22;62.55;98137.69;10057425;29;20241;-81
2021/12/28 11:27:01;;;;;;;0.10;0.10;;;;;;;11.91;60.63;98124.16;10076452;29;20270;-80
2021/12/28 11:32:23;;;;;;;0.20;0.10;;;;;;;11.33;62.29;98133.03;10055319;29;20491;-78
2021/12/28 11:37:27;;;;;;;0.50;0.20;;;;;;;11.39;63.27;98109.03;10064808;29;20323;-80
2021/12/28 11:42:31;;;;;;;0.13;0.13;;;;;;;11.52;62.63;98115.22;10069313;29;20262;-80
2021/12/28 11:47:33;;;;;;;0.30;0.30;;;;;;;11.10;64.11;98107.81;10070913;29;20922;-80
2021/12/28 11:52:36;;;;;;;0.93;0.30;;;;;;;11.56;62.63;98094.38;10071515;29;20285;-80
2021/12/28 11:57:49;;;;;;;0.60;0.30;;;;;;;11.50;63.60;98085.47;10065125;29;20266;-81
2021/12/28 12:02:53;;;;;;;0.30;0.20;;;;;;;11.41;64.56;98072.88;10062024;29;20237;-79
2021/12/28 12:08:04;;;;;;;0.10;0.10;;;;;;;11.06;66.26;98048.75;10084541;29;20316;-80
2021/12/28 12:13:26;;;;;;;0.20;0.07;;;;;;;11.04;66.00;98045.50;10062562;29;20242;-80
2021/12/28 12:18:43;;;;;;;0.10;0.10;;;;;;;11.37;64.74;98032.69;10061918;29;20265;-79
2021/12/28 12:23:48;;;;;;;0.33;0.30;;;;;;;11.76;63.32;98022.72;10041641;29;20237;-80
2021/12/28 12:28:52;;;;;;;3.47;0.20;;;;;;;11.88;61.25;98013.19;10039729;29;20245;-80
2021/12/28 12:33:55;;;;;;;2.03;0.20;;;;;;;11.68;62.33;98004.13;10043606;29;20901;-81
2021/12/28 12:38:58;;;;;;;1.10;0.23;;;;;;;11.35;64.54;98010.59;10056823;29;20305;-82
2021/12/28 12:44:08;;;;;;;0.73;0.20;;;;;;;11.41;64.93;97985.72;10063857;29;20250;-79
2021/12/28 12:49:13;;;;;;;1.33;0.20;;;;;;;11.42;66.34;97964.84;10041192;29;20234;-79
2021/12/28 12:54:25;;;;;;;0.40;0.20;;;;;;;11.48;66.26;97963.31;10057523;29;20317;-80
2021/12/28 12:59:44;;;;;;;0.80;0.10;;;;;;;10.91;67.68;97959.84;10046854;29;20260;-80
2021/12/28 13:04:49;;;;;;;1.23;0.30;;;;;;;10.78;68.58;97992.19;10036898;29;20431;-80
2021/12/28 13:09:58;;;;;;;1.37;0.60;;;;;;;11.76;66.04;98022.72;10072450;29;20642;-80
2021/12/28 13:15:02;;;;;;;1.43;0.50;;;;;;;11.57;66.73;98020.06;10065955;29;20241;-80
2021/12/28 13:20:11;;;;;;;4.87;1.00;;;;;;;11.02;66.63;98021.78;10075766;29;20249;-80
2021/12/28 13:25:20;;;;;;;7.23;0.90;;;;;;;10.77;65.44;98010.22;10084153;29;20237;-78
2021/12/28 13:30:30;;;;;;;6.40;1.30;;;;;;;10.86;64.18;98010.78;10077638;29;20623;-78
2021/12/28 13:35:45;;;;;;;11.53;1.60;;;;;;;11.09;62.49;98011.47;10070767;29;20241;-80
2021/12/28 13:40:58;;;;;;;14.33;2.27;;;;;;;11.13;62.16;98005.91;10058899;29;20312;-78
2021/12/28 13:46:05;;;;;;;8.00;1.50;;;;;;;11.21;60.99;98007.59;10070643;29;20233;-79
2021/12/28 13:51:17;;;;;;;16.43;2.10;;;;;;;11.53;60.26;98009.97;10077066;29;20230;-79
2021/12/28 13:56:34;;;;;;;19.20;2.40;;;;;;;11.12;60.03;98019.16;10075202;29;20710;-79
2021/12/28 14:01:42;;;;;;;11.80;2.23;;;;;;;11.43;59.28;98023.50;10073628;29;20246;-79
2021/12/28 14:06:48;;;;;;;17.53;2.30;;;;;;;11.27;59.53;98017.28;10075624;29;20246;-79
2021/12/28 14:11:53;;;;;;;13.00;2.17;;;;;;;11.56;58.99;98015.63;10064596;29;20309;-79
2021/12/28 14:17:00;;;;;;;13.03;2.87;;;;;;;11.61;58.49;98031.34;10093103;29;20245;-79
2021/12/28 14:22:15;;;;;;;13.87;2.33;;;;;;;11.56;58.09;98026.88;10083712;29;20308;-79
2021/12/28 14:27:30;;;;;;;19.53;3.50;;;;;;;11.72;57.24;98041.53;10080865;29;20671;-81
2021/12/28 14:32:39;;;;;;;19.57;2.30;;;;;;;11.08;57.87;98031.53;10065746;29;20329;-79
2021/12/28 14:37:43;;;;;;;14.40;2.93;;;;;;;11.53;57.57;98033.25;10080140;29;20249;-78
2021/12/28 14:42:47;;;;;;;18.90;2.87;;;;;;;11.62;56.80;98039.41;10080179;29;20297;-78
2021/12/28 14:47:55;;;;;;;17.00;2.87;;;;;;;11.78;55.44;98042.03;10065068;29;20747;-81
2021/12/28 14:53:01;;;;;;;13.80;3.03;;;;;;;11.56;55.67;98049.38;10064824;29;20238;-78
2021/12/28 14:58:09;;;;;;;20.97;2.90;;;;;;;11.69;54.95;98073.25;10085708;29;20710;-81
2021/12/28 15:03:16;;;;;;;15.13;2.63;;;;;;;11.58;55.00;98065.84;10093894;29;20209;-81
2021/12/28 15:08:21;;;;;;;25.20;4.67;;;;;;;11.93;55.16;98051.38;10102245;29;20317;-80
2021/12/28 15:13:27;;;;;;;20.70;3.10;;;;;;;12.00;54.28;98048.66;10094336;29;20237;-81
2021/12/28 15:18:32;;;;;;;17.57;3.00;;;;;;;11.30;56.37;98055.88;10095088;29;20261;-80
2021/12/28 15:23:36;;;;;;;19.97;3.60;;;;;;;11.19;55.96;98049.31;10081884;29;20568;-78
2021/12/28 15:28:38;;;;;;;20.23;3.10;;;;;;;10.89;57.07;98057.75;10089087;29;20273;-81
2021/12/28 15:33:40;;;;;;;11.37;2.67;;;;;;;10.97;56.00;98062.28;10097008;29;20293;-81
2021/12/28 15:38:45;;;;;;;21.37;3.33;;;;;;;10.97;55.12;98076.34;10062934;29;20269;-79
2021/12/28 15:43:47;;;;;;;9.90;1.93;;;;;;;10.45;56.11;98077.13;10096638;29;20608;-79
2021/12/28 15:48:50;;;;;;;9.90;1.70;;;;;;;10.41;54.73;98093.91;10064772;29;20667;-79
2021/12/28 15:53:53;;;;;;;7.33;1.10;;;;;;;9.95;55.72;98114.72;10074181;29;20246;-79
2021/12/28 15:58:56;;;;;;;5.40;0.80;;;;;;;10.07;56.44;98111.75;10080666;29;20301;-81
2021/12/28 16:03:58;;;;;;;6.80;0.70;;;;;;;9.84;57.32;98108.88;10082901;29;20246;-80
2021/12/28 16:09:02;;;;;;;4.30;0.73;;;;;;;10.07;56.50;98131.38;10076466;29;20253;-79
2021/12/28 16:14:04;;;;;;;2.57;0.50;;;;;;;9.93;57.12;98122.69;10065630;29;20238;-80
2021/12/28 16:19:07;;;;;;;3.60;0.40;;;;;;;9.69;58.68;98135.06;10088780;29;20321;-81
2021/12/28 16:24:10;;;;;;;3.40;0.70;;;;;;;9.75;58.01;98144.78;10083580;29;20286;-81
2021/12/28 16:29:12;;;;;;;2.03;0.50;;;;;;;9.57;59.56;98152.84;10076267;29;20233;-80
2021/12/28 16:34:15;;;;;;;6.17;0.87;;;;;;;9.34;60.66;98165.91;10082362;29;20265;-81
2021/12/28 16:39:18;;;;;;;5.17;1.00;;;;;;;9.08;62.61;98165.69;10067547;29;20734;-81
2021/12/28 16:44:20;;;;;;;4.30;0.70;;;;;;;9.09;63.40;98170.13;10088576;29;20233;-80
2021/12/28 16:49:24;;;;;;;4.57;0.70;;;;;;;9.57;61.62;98172.47;10075691;29;20229;-80
2021/12/28 16:54:26;;;;;;;5.57;1.10;;;;;;;9.33;62.73;98167.06;10062425;29;20269;-79
2021/12/28 16:59:28;;;;;;;4.27;0.90;;;;;;;9.41;62.22;98180.09;10032453;29;20659;-81
2021/12/28 17:04:31;;;;;;;5.60;1.30;;;;;;;10.20;60.07;98179.72;10052553;29;20237;-79
2021/12/28 17:09:33;;;;;;;4.07;0.97;;;;;;;10.38;59.27;98186.44;10063346;29;20233;-81
2021/12/28 17:14:40;;;;;;;4.53;0.80;;;;;;;10.12;59.49;98192.78;10086055;29;20684;-81
2021/12/28 17:19:43;;;;;;;5.53;1.17;;;;;;;9.82;60.93;98194.59;10082344;29;20301;-81
2021/12/28 17:24:45;;;;;;;6.93;2.90;;;;;;;10.04;60.37;98191.03;10057930;29;20314;-80
2021/12/28 17:29:47;;;;;;;5.40;2.70;;;;;;;9.96;60.77;98190.09;10070705;29;20233;-81
2021/12/28 17:34:50;;;;;;;21.80;9.93;;;;;;;9.16;63.59;98187.94;10055115;29;20547;-79
2021/12/28 17:39:57;;;;;;;2.57;0.67;;;;;;;8.91;64.94;98178.94;10082244;29;20807;-80
2021/12/28 17:44:59;;;;;;;24.60;13.93;;;;;;;9.10;64.24;98178.16;10096722;29;20245;-79
2021/12/28 17:50:02;;;;;;;3.47;0.47;;;;;;;8.71;65.39;98162.44;10078565;29;20221;-80
2021/12/28 17:55:06;;;;;;;1.20;0.40;;;;;;;9.20;64.31;98165.56;10103269;29;20241;-80
2021/12/28 18:00:09;;;;;;;1.83;0.60;;;;;;;9.58;62.88;98176.88;10080491;29;20359;-82
2021/12/28 18:05:19;;;;;;;4.40;0.80;;;;;;;9.08;63.30;98171.31;10081491;29;20264;-80
2021/12/28 18:10:23;;;;;;;2.53;0.47;;;;;;;9.38;62.33;98181.63;10077408;29;20289;-82
2021/12/28 18:15:25;;;;;;;3.23;0.70;;;;;;;9.80;61.13;98191.34;10062347;29;20532;-81
2021/12/28 18:20:30;;;;;;;2.93;0.77;;;;;;;10.02;60.38;98197.00;10079602;29;20250;-80
2021/12/28 18:25:32;;;;;;;2.60;0.70;;;;;;;9.94;60.25;98216.88;10067776;29;20254;-81
2021/12/28 18:30:36;;;;;;;5.17;0.90;;;;;;;9.68;61.38;98207.13;10071600;29;20217;-80
2021/12/28 18:35:40;;;;;;;3.83;0.83;;;;;;;9.41;62.55;98213.72;10062112;29;20234;-81
2021/12/28 18:40:49;;;;;;;1.83;0.80;;;;;;;9.95;60.71;98235.34;10082309;29;20268;-81
2021/12/28 18:45:51;;;;;;;4.83;1.27;;;;;;;9.83;61.36;98246.72;10079502;29;20301;-81
2021/12/28 18:50:56;;;;;;;1.93;0.90;;;;;;;9.98;60.94;98254.22;10087995;29;20258;-81
2021/12/28 18:56:02;;;;;;;3.50;1.10;;;;;;;9.63;61.67;98255.09;10064475;29;20306;-81
2021/12/28 19:01:08;;;;;;;2.93;1.00;;;;;;;9.46;63.87;98263.03;10087057;29;20328;-81
2021/12/28 19:06:11;;;;;;;3.23;0.77;;;;;;;9.40;62.69;98278.53;10071697;29;20325;-80
2021/12/28 19:11:13;;;;;;;3.57;1.27;;;;;;;9.72;62.24;98280.91;10064218;29;20206;-81
2021/12/28 19:16:16;;;;;;;8.83;4.40;;;;;;;9.62;62.99;98281.50;10073473;29;20278;-82
2021/12/28 19:21:18;;;;;;;3.53;1.70;;;;;;;9.77;61.91;98293.03;10060998;29;20564;-83
2021/12/28 19:26:21;;;;;;;4.50;1.23;;;;;;;10.13;61.19;98303.84;10059185;29;20237;-81
2021/12/28 19:31:25;;;;;;;2.93;1.83;;;;;;;9.15;64.48;98320.78;10075152;29;20309;-82
2021/12/28 19:36:28;;;;;;;4.27;1.53;;;;;;;10.12;61.50;98330.28;10047994;29;20242;-81
2021/12/28 19:41:30;;;;;;;4.70;1.50;;;;;;;10.27;60.65;98329.41;10071152;29;20276;-81
2021/12/28 19:46:33;;;;;;;2.63;1.30;;;;;;;9.50;64.11;98332.03;10085910;29;20288;-84
2021/12/28 19:51:36;;;;;;;3.83;1.93;;;;;;;9.17;64.64;98331.63;10078375;29;20237;-80
2021/12/28 19:56:38;;;;;;;3.47;1.70;;;;;;;10.03;62.32;98343.72;10044839;29;20305;-81
2021/12/28 20:01:41;;;;;;;3.00;1.70;;;;;;;10.07;61.82;98358.63;10072413;29;20256;-81
2021/12/28 20:06:43;;;;;;;2.93;1.67;;;;;;;10.10;61.74;98363.50;10078114;29;20269;-81
2021/12/28 20:11:46;;;;;;;4.80;2.17;;;;;;;9.93;62.71;98366.72;10060338;29;20599;-80
2021/12/28 20:16:49;;;;;;;4.77;2.80;;;;;;;10.10;61.97;98376.75;10066869;29;20279;-80
2021/12/28 20:21:51;;;;;;;4.43;3.10;;;;;;;9.79;63.58;98391.63;10057826;29;20310;-80
2021/12/28 20:26:54;;;;;;;4.77;3.07;;;;;;;10.26;62.07;98406.34;10060638;29;20249;-83
2021/12/28 20:31:56;;;;;;;4.53;3.47;;;;;;;9.90;63.65;98415.13;10066667;29;20277;-83
2021/12/28 20:36:58;;;;;;;4.47;3.60;;;;;;;9.71;65.02;98424.28;10067137;29;20265;-80
2021/12/28 20:42:01;;;;;;;8.47;5.97;;;;;;;10.50;62.32;98426.91;10092774;29;20512;-82
2021/12/28 20:47:03;;;;;;;9.30;6.37;;;;;;;10.29;62.74;98436.50;10065630;29;20202;-82
2021/12/28 20:52:06;;;;;;;7.13;4.47;;;;;;;10.32;62.84;98443.38;10060613;29;20202;-81
2021/12/28 20:57:21;;;;;;;9.60;7.70;;;;;;;10.29;63.29;98455.34;10088477;29;20265;-82
2021/12/28 21:02:27;;;;;;;5.23;4.73;;;;;;;9.95;65.24;98465.34;10055877;29;20230;-82
2021/12/28 21:07:30;;;;;;;6.33;5.33;;;;;;;10.02;64.94;98474.75;10073339;29;20318;-81
2021/12/28 21:12:32;;;;;;;5.73;5.13;;;;;;;10.73;63.04;98470.81;10078031;29;20254;-82
2021/12/28 21:17:36;;;;;;;5.90;5.30;;;;;;;10.11;64.58;98480.16;10071183;29;20603;-84
2021/12/28 21:22:39;;;;;;;6.13;5.53;;;;;;;10.48;64.21;98486.25;10077893;29;20623;-81
2021/12/28 21:27:48;;;;;;;6.70;5.33;;;;;;;10.77;63.09;98487.72;10078723;29;20237;-82
2021/12/28 21:32:52;;;;;;;7.87;5.90;;;;;;;10.26;64.58;98504.59;10079845;29;20680;-83
2021/12/28 21:37:56;;;;;;;6.10;5.30;;;;;;;10.55;63.74;98503.25;10083833;29;20238;-81
2021/12/28 21:43:00;;;;;;;5.53;4.67;;;;;;;10.29;64.55;98517.91;10059572;29;20289;-82
2021/12/28 21:48:05;;;;;;;5.20;4.70;;;;;;;10.25;66.35;98525.41;10079718;29;20750;-82
2021/12/28 21:53:07;;;;;;;5.80;4.53;;;;;;;10.48;65.10;98525.56;10048446;29;20245;-82
2021/12/28 21:58:09;;;;;;;5.77;4.17;;;;;;;10.50;64.64;98544.84;10063746;29;20265;-83
2021/12/28 22:03:12;;;;;;;5.40;3.87;;;;;;;11.14;62.65;98547.91;10062805;29;20265;-82
2021/12/28 22:08:14;;;;;;;4.10;3.03;;;;;;;10.85;64.19;98573.78;10063968;29;20297;-82
2021/12/28 22:13:16;;;;;;;6.07;3.07;;;;;;;10.20;67.35;98570.59;10086407;29;20364;-81
2021/12/28 22:18:18;;;;;;;5.33;3.60;;;;;;;10.36;66.02;98585.41;10066912;29;20241;-82
2021/12/28 22:23:20;;;;;;;4.37;3.87;;;;;;;10.47;66.28;98596.13;10083348;29;20258;-82
2021/12/28 22:28:27;;;;;;;5.00;4.50;;;;;;;10.83;65.63;98609.03;10082703;29;20517;-82
2021/12/28 22:33:30;;;;;;;8.43;5.93;;;;;;;10.53;66.69;98611.50;10080382;29;20249;-82
2021/12/28 22:38:33;;;;;;;6.80;5.77;;;;;;;10.51;67.79;98627.88;10076613;29;20265;-82
2021/12/28 22:43:36;;;;;;;6.43;5.83;;;;;;;10.79;66.93;98637.84;10094449;29;20297;-82
2021/12/28 22:48:39;;;;;;;8.20;6.13;;;;;;;10.16;69.76;98650.25;10069939;29;20217;-81
2021/12/28 22:53:41;;;;;;;9.63;5.97;;;;;;;11.01;66.25;98653.22;10094021;29;20269;-82
2021/12/28 22:58:43;;;;;;;6.93;5.57;;;;;;;10.59;68.02;98654.97;10105966;29;20269;-82
2021/12/28 23:03:45;;;;;;;6.50;5.80;;;;;;;10.53;69.05;98678.88;10098673;29;20304;-81
2021/12/28 23:08:49;;;;;;;9.80;8.37;;;;;;;10.51;69.04;98681.22;10062928;29;20262;-81
2021/12/28 23:13:51;;;;;;;12.70;10.43;;;;;;;10.18;70.28;98695.63;10080116;29;20257;-82
2021/12/28 23:18:53;;;;;;;11.27;9.40;;;;;;;10.60;69.16;98702.38;10085525;29;20274;-82
2021/12/28 23:23:56;;;;;;;11.10;9.97;;;;;;;10.57;68.83;98703.09;10095620;29;21180;-81
2021/12/28 23:28:58;;;;;;;16.63;13.10;;;;;;;10.24;71.05;98731.47;10069590;29;20225;-82
2021/12/28 23:34:01;;;;;;;14.40;12.03;;;;;;;10.27;69.58;98736.38;10096817;29;20238;-81
2021/12/28 23:39:06;;;;;;;16.47;13.40;;;;;;;10.47;68.97;98744.94;10095732;29;20635;-81
2021/12/28 23:44:09;;;;;;;15.03;12.27;;;;;;;10.57;69.53;98755.63;10108518;29;20329;-82
2021/12/28 23:49:11;;;;;;;13.93;11.90;;;;;;;11.04;67.52;98759.28;10081977;29;20888;-81